Time;durP1;ratioP1;P1;durP2;ratioP2;P2;SDS_P1;SDS_P2;PMS_P1;PMS_P2;Temp;Humidity;BMP_temperature;BMP_pressure;BME280_temperature;BME280_humidity;BME280_pressure;Samples;Min_cycle;Max_cycle;Signal;HPM_P1;HPM_P2
2023/09/23 00:01:05;;;;;;;6.40;1.70;;;;;;;18.98;100.00;100307.22;104944;1254;71336;-50
2023/09/23 00:03:33;;;;;;;4.60;1.80;;;;;;;18.98;100.00;100305.07;104864;1256;59740;-50
2023/09/23 00:06:02;;;;;;;1.70;1.50;;;;;;;18.97;100.00;100307.73;107018;1253;59650;-49
2023/09/23 00:08:30;;;;;;;5.20;2.20;;;;;;;18.95;100.00;100307.11;104971;1253;71845;-51
2023/09/23 00:10:57;;;;;;;3.70;2.10;;;;;;;18.95;100.00;100304.23;104718;1254;66029;-52
2023/09/23 00:13:25;;;;;;;3.40;2.10;;;;;;;18.94;100.00;100304.47;104621;1251;73989;-49
2023/09/23 00:15:52;;;;;;;1.70;1.60;;;;;;;18.93;100.00;100306.02;104688;1253;60574;-50
2023/09/23 00:18:20;;;;;;;2.10;1.20;;;;;;;18.92;100.00;100302.64;104988;1252;60102;-51
2023/09/23 00:20:47;;;;;;;5.20;1.80;;;;;;;18.88;100.00;100306.83;104968;1257;72028;-52
2023/09/23 00:23:15;;;;;;;5.50;1.90;;;;;;;18.86;100.00;100307.61;104748;1255;64810;-49
2023/09/23 00:25:46;;;;;;;2.40;1.50;;;;;;;18.82;100.00;100308.41;104782;1254;73097;-51
2023/09/23 00:28:14;;;;;;;4.90;1.90;;;;;;;18.79;100.00;100305.55;104850;1257;60157;-53
2023/09/23 00:30:45;;;;;;;2.50;1.80;;;;;;;18.75;100.00;100301.65;105399;1250;60155;-52
2023/09/23 00:33:16;;;;;;;3.00;1.70;;;;;;;18.72;100.00;100300.64;105535;1255;71705;-50
2023/09/23 00:35:44;;;;;;;3.00;2.00;;;;;;;18.68;100.00;100303.31;105065;1253;68028;-50
2023/09/23 00:38:12;;;;;;;2.50;1.40;;;;;;;18.63;100.00;100302.38;105648;1253;71429;-52
2023/09/23 00:40:41;;;;;;;4.60;1.50;;;;;;;18.59;100.00;100303.60;104814;1253;60629;-50
2023/09/23 00:43:09;;;;;;;2.10;1.60;;;;;;;18.54;100.00;100304.63;104786;1251;60061;-52
2023/09/23 00:45:36;;;;;;;7.60;1.90;;;;;;;18.49;100.00;100302.59;104940;1257;73121;-52
2023/09/23 00:48:08;;;;;;;3.10;1.30;;;;;;;18.45;100.00;100302.39;104934;1253;68510;-49
2023/09/23 00:50:36;;;;;;;4.80;2.00;;;;;;;18.40;100.00;100303.08;105077;1254;71412;-51
2023/09/23 00:53:04;;;;;;;5.00;2.50;;;;;;;18.36;100.00;100303.39;104745;1255;60357;-51
2023/09/23 00:55:39;;;;;;;4.30;1.90;;;;;;;18.32;100.00;100301.91;104857;1260;60185;-49
2023/09/23 00:58:07;;;;;;;2.10;1.90;;;;;;;18.27;100.00;100303.39;105700;1254;72796;-51
2023/09/23 01:00:36;;;;;;;2.50;1.90;;;;;;;18.22;100.00;100303.73;104899;1253;66747;-50
2023/09/23 01:03:03;;;;;;;6.90;1.90;;;;;;;18.18;100.00;100301.81;104933;1253;72728;-50
2023/09/23 01:05:33;;;;;;;5.70;2.00;;;;;;;18.13;100.00;100303.61;104870;1252;59727;-51
2023/09/23 01:08:05;;;;;;;3.10;2.30;;;;;;;18.08;100.00;100307.21;108820;1252;59304;-52
2023/09/23 01:10:33;;;;;;;2.00;1.70;;;;;;;18.04;100.00;100307.70;104704;1253;73091;-49
2023/09/23 01:13:00;;;;;;;6.30;2.10;;;;;;;17.99;100.00;100306.61;104709;1253;66761;-51
2023/09/23 01:15:31;;;;;;;2.10;1.90;;;;;;;17.94;100.00;100308.03;104623;1258;71725;-51
2023/09/23 01:17:58;;;;;;;3.20;1.90;;;;;;;17.91;100.00;100312.05;104945;1254;61376;-49
2023/09/23 01:20:26;;;;;;;2.90;1.60;;;;;;;17.87;100.00;100307.27;105101;1254;59740;-53
2023/09/23 01:22:57;;;;;;;4.40;2.40;;;;;;;17.83;100.00;100313.17;104683;1252;73047;-51
2023/09/23 01:25:25;;;;;;;2.70;2.30;;;;;;;17.80;100.00;100319.22;104641;1253;65137;-53
2023/09/23 01:27:53;;;;;;;2.30;1.70;;;;;;;17.77;100.00;100323.23;105341;1254;72200;-51
2023/09/23 01:30:21;;;;;;;3.70;1.70;;;;;;;17.74;100.00;100324.14;105078;1253;59733;-52
2023/09/23 01:32:49;;;;;;;4.20;2.20;;;;;;;17.72;100.00;100319.94;104769;1256;59634;-50
2023/09/23 01:35:17;;;;;;;2.60;1.70;;;;;;;17.68;100.00;100318.95;104992;1258;71926;-52
2023/09/23 01:37:46;;;;;;;2.50;1.50;;;;;;;17.64;100.00;100321.36;108985;1252;64767;-50
2023/09/23 01:40:17;;;;;;;4.60;1.70;;;;;;;17.62;100.00;100320.08;105057;1253;72888;-51
2023/09/23 01:42:49;;;;;;;5.10;1.90;;;;;;;17.59;100.00;100316.80;105673;1253;59981;-52
2023/09/23 01:45:19;;;;;;;9.30;2.00;;;;;;;17.56;100.00;100312.27;105416;1253;59712;-52
2023/09/23 01:47:48;;;;;;;7.40;2.60;;;;;;;17.53;100.00;100315.42;105458;1253;71845;-50
2023/09/23 01:50:19;;;;;;;3.10;2.20;;;;;;;17.49;100.00;100318.98;105178;1252;66969;-52
2023/09/23 01:52:46;;;;;;;4.30;2.00;;;;;;;17.45;100.00;100324.13;104883;1253;73241;-53
2023/09/23 01:55:16;;;;;;;7.70;2.80;;;;;;;17.39;100.00;100327.56;104928;1257;59695;-52
2023/09/23 01:57:48;;;;;;;3.70;2.30;;;;;;;17.33;100.00;100329.27;106210;1252;59175;-53
2023/09/23 02:00:21;;;;;;;9.50;2.70;;;;;;;17.27;100.00;100332.58;104570;1258;73038;-53
2023/09/23 02:02:49;;;;;;;4.40;2.70;;;;;;;17.19;100.00;100327.83;106295;1257;66893;-53
2023/09/23 02:05:18;;;;;;;6.10;3.00;;;;;;;17.12;100.00;100332.32;104741;1259;72434;-53
2023/09/23 02:07:50;;;;;;;4.50;2.40;;;;;;;17.05;100.00;100334.08;105120;1257;60572;-52
2023/09/23 02:10:18;;;;;;;7.10;2.60;;;;;;;16.97;100.00;100335.84;104876;1253;60043;-52
2023/09/23 02:12:45;;;;;;;2.70;2.50;;;;;;;16.90;100.00;100336.80;104805;1253;71807;-53
2023/09/23 02:15:16;;;;;;;3.80;2.00;;;;;;;16.85;100.00;100336.08;104867;1253;66371;-52
2023/09/23 02:17:47;;;;;;;4.80;2.20;;;;;;;16.80;100.00;100334.80;104936;1253;72631;-53
2023/09/23 02:20:19;;;;;;;7.10;2.60;;;;;;;16.74;100.00;100333.53;109098;1252;60547;-54
2023/09/23 02:22:55;;;;;;;2.00;1.80;;;;;;;16.71;100.00;100334.85;109126;1253;60229;-53
2023/09/23 02:25:25;;;;;;;;;;;;;;;16.68;100.00;100332.66;109068;1251;73479;-53
2023/09/23 02:27:54;;;;;;;2.70;2.00;;;;;;;16.68;100.00;100336.67;108923;1253;67037;-53
2023/09/23 02:30:22;;;;;;;5.00;2.20;;;;;;;16.69;100.00;100339.16;109118;1252;73173;-54
2023/09/23 02:32:49;;;;;;;3.70;2.60;;;;;;;16.69;100.00;100336.75;109128;1253;60640;-54
2023/09/23 02:35:17;;;;;;;2.50;1.50;;;;;;;16.69;100.00;100340.91;109069;1252;60106;-53
2023/09/23 02:37:45;;;;;;;3.30;2.00;;;;;;;16.69;100.00;100341.47;109064;1252;71431;-53
2023/09/23 02:40:17;;;;;;;5.10;2.60;;;;;;;16.67;100.00;100343.45;108966;1253;65645;-53
2023/09/23 02:42:46;;;;;;;15.80;3.60;;;;;;;16.63;100.00;100346.20;109147;1252;72720;-53
2023/09/23 02:45:15;;;;;;;10.60;2.20;;;;;;;16.59;100.00;100347.48;109062;1254;60509;-53
2023/09/23 02:47:43;;;;;;;5.80;2.50;;;;;;;16.56;100.00;100351.31;108815;1252;59495;-53
2023/09/23 02:50:13;;;;;;;3.20;2.20;;;;;;;16.53;100.00;100358.05;109105;1253;71850;-53
2023/09/23 02:52:44;;;;;;;2.10;1.90;;;;;;;16.49;100.00;100361.05;108986;1253;65671;-53
2023/09/23 02:55:14;;;;;;;5.00;1.20;;;;;;;16.45;100.00;100361.98;109029;1253;73582;-53
2023/09/23 02:57:48;;;;;;;7.40;2.00;;;;;;;16.42;100.00;100364.02;105720;1253;60580;-52
2023/09/23 03:00:20;;;;;;;3.10;1.60;;;;;;;16.39;100.00;100364.18;105733;1257;59678;-51
2023/09/23 03:02:55;;;;;;;3.80;2.20;;;;;;;16.37;100.00;100361.80;106310;1256;72142;-52
2023/09/23 03:05:27;;;;;;;4.10;1.80;;;;;;;16.34;100.00;100358.52;105882;1256;67120;-52
2023/09/23 03:07:57;;;;;;;3.40;2.40;;;;;;;16.32;100.00;100355.95;106139;1254;71479;-52
2023/09/23 03:10:40;;;;;;;3.50;2.00;;;;;;;16.30;100.00;100350.98;105454;1256;60096;-51
2023/09/23 03:13:11;;;;;;;3.30;2.20;;;;;;;16.28;100.00;100350.73;104875;1258;59637;-51
2023/09/23 03:15:44;;;;;;;3.60;2.10;;;;;;;16.27;100.00;100350.64;104898;1253;71786;-52
2023/09/23 03:18:17;;;;;;;4.60;1.90;;;;;;;16.24;100.00;100349.92;105265;1257;66008;-52
2023/09/23 03:20:45;;;;;;;5.90;2.70;;;;;;;16.20;100.00;100346.34;105171;1253;72786;-53
2023/09/23 03:23:12;;;;;;;2.60;2.20;;;;;;;16.17;100.00;100348.50;104835;1257;60594;-53
2023/09/23 03:25:47;;;;;;;3.50;1.70;;;;;;;16.15;100.00;100344.66;104633;1253;60985;-53
2023/09/23 03:28:16;;;;;;;3.40;1.50;;;;;;;16.13;100.00;100347.89;104627;1252;71820;-52
2023/09/23 03:30:47;;;;;;;5.10;2.10;;;;;;;16.12;100.00;100343.79;105115;1257;67653;-52
2023/09/23 03:33:18;;;;;;;2.20;1.30;;;;;;;16.11;100.00;100343.65;104820;1257;73232;-53
2023/09/23 03:35:46;;;;;;;3.90;1.60;;;;;;;16.11;100.00;100344.91;108893;1253;61664;-53
2023/09/23 03:38:16;;;;;;;5.50;1.70;;;;;;;16.13;100.00;100346.61;105627;1259;59238;-53
2023/09/23 03:40:52;;;;;;;2.40;1.60;;;;;;;16.15;100.00;100350.11;104920;1252;74077;-53
2023/09/23 03:43:21;;;;;;;9.20;1.80;;;;;;;16.16;100.00;100346.45;106070;1259;66841;-52
2023/09/23 03:45:48;;;;;;;8.40;2.20;;;;;;;16.16;100.00;100351.48;105714;1253;73089;-53
2023/09/23 03:48:16;;;;;;;2.60;1.70;;;;;;;16.17;100.00;100347.95;104850;1253;60354;-53
2023/09/23 03:50:43;;;;;;;3.60;1.60;;;;;;;16.19;100.00;100351.33;104823;1252;60499;-53
2023/09/23 03:53:11;;;;;;;3.20;2.00;;;;;;;16.19;100.00;100350.23;104680;1253;74862;-54
2023/09/23 03:55:39;;;;;;;4.80;1.80;;;;;;;16.19;100.00;100353.13;105114;1253;66801;-53
2023/09/23 03:58:06;;;;;;;7.30;2.00;;;;;;;16.18;100.00;100358.23;104752;1258;72862;-53
2023/09/23 04:00:34;;;;;;;4.10;1.80;;;;;;;16.18;100.00;100358.79;105084;1253;60437;-53
2023/09/23 04:03:02;;;;;;;4.70;2.20;;;;;;;16.16;100.00;100356.38;104834;1254;60536;-53
2023/09/23 04:05:31;;;;;;;4.10;1.50;;;;;;;16.15;100.00;100355.73;104818;1258;72927;-53
2023/09/23 04:07:58;;;;;;;5.70;1.30;;;;;;;16.13;100.00;100353.49;104706;1258;66966;-53
2023/09/23 04:10:27;;;;;;;2.20;1.70;;;;;;;16.13;100.00;100356.59;107236;1256;73258;-53
2023/09/23 04:12:55;;;;;;;3.80;1.60;;;;;;;16.14;100.00;100358.35;104981;1253;60527;-53
2023/09/23 04:15:24;;;;;;;5.20;1.70;;;;;;;16.15;100.00;100359.20;105111;1254;60663;-54
2023/09/23 04:17:52;;;;;;;1.80;1.20;;;;;;;16.17;100.00;100360.27;105178;1253;75041;-55
2023/09/23 04:20:19;;;;;;;4.80;1.60;;;;;;;16.19;100.00;100361.46;105740;1253;64750;-54
2023/09/23 04:22:48;;;;;;;5.50;2.30;;;;;;;16.21;100.00;100360.39;104834;1253;72706;-54
2023/09/23 04:25:16;;;;;;;4.40;2.30;;;;;;;16.24;100.00;100362.74;104983;1251;61361;-54
2023/09/23 04:27:44;;;;;;;5.70;2.00;;;;;;;16.29;100.00;100365.39;105395;1251;60465;-53
2023/09/23 04:30:12;;;;;;;4.60;1.80;;;;;;;16.32;100.00;100363.77;104736;1253;73846;-53
2023/09/23 04:32:40;;;;;;;4.90;2.10;;;;;;;16.34;100.00;100364.15;104562;1257;66909;-53
2023/09/23 04:35:12;;;;;;;6.20;1.90;;;;;;;16.37;100.00;100363.78;104851;1253;72745;-52
2023/09/23 04:37:40;;;;;;;2.60;1.70;;;;;;;16.40;100.00;100364.34;105559;1255;60649;-53
2023/09/23 04:40:12;;;;;;;4.40;1.70;;;;;;;16.43;100.00;100370.83;104533;1253;60573;-53
2023/09/23 04:42:40;;;;;;;6.40;2.30;;;;;;;16.46;100.00;100376.77;107699;1253;73883;-53
2023/09/23 04:45:09;;;;;;;5.30;2.30;;;;;;;16.51;100.00;100379.73;104668;1253;67539;-53
2023/09/23 04:47:37;;;;;;;3.50;2.40;;;;;;;16.57;100.00;100380.61;104821;1254;72699;-53
2023/09/23 04:50:07;;;;;;;4.40;1.90;;;;;;;16.65;100.00;100385.96;108999;1253;60494;-54
2023/09/23 04:52:34;;;;;;;7.50;2.80;;;;;;;16.73;100.00;100388.73;105601;1253;60483;-54
2023/09/23 04:55:02;;;;;;;7.90;2.00;;;;;;;16.81;100.00;100391.42;108978;1253;72690;-54
2023/09/23 04:57:29;;;;;;;3.70;2.00;;;;;;;16.89;100.00;100391.48;107311;1253;65666;-53
2023/09/23 04:59:57;;;;;;;6.00;2.60;;;;;;;16.97;100.00;100386.75;104795;1253;71503;-53
2023/09/23 05:02:26;;;;;;;3.60;1.90;;;;;;;17.06;100.00;100388.92;105740;1253;60431;-52
2023/09/23 05:04:53;;;;;;;4.40;2.00;;;;;;;17.13;100.00;100386.98;109045;1253;60841;-54
2023/09/23 05:07:23;;;;;;;5.60;2.50;;;;;;;17.19;100.00;100388.04;108938;1253;72634;-54
2023/09/23 05:09:51;;;;;;;2.70;1.90;;;;;;;17.25;100.00;100386.77;105561;1256;66204;-53
2023/09/23 05:12:19;;;;;;;4.10;2.10;;;;;;;17.28;100.00;100382.90;105169;1257;73062;-53
2023/09/23 05:14:46;;;;;;;5.00;2.00;;;;;;;17.33;100.00;100385.88;105399;1257;60994;-53
2023/09/23 05:17:17;;;;;;;7.50;2.20;;;;;;;17.36;100.00;100383.65;104992;1258;60863;-52
2023/09/23 05:19:47;;;;;;;6.00;1.80;;;;;;;17.39;100.00;100387.23;109042;1254;72629;-54
2023/09/23 05:22:15;;;;;;;6.40;2.20;;;;;;;17.43;100.00;100387.75;108945;1253;67164;-54
2023/09/23 05:24:47;;;;;;;6.10;2.10;;;;;;;17.46;100.00;100387.71;108941;1253;71855;-54
2023/09/23 05:27:15;;;;;;;1.90;1.70;;;;;;;17.51;100.00;100394.08;109042;1253;61707;-53
2023/09/23 05:29:43;;;;;;;3.30;1.40;;;;;;;17.58;100.00;100394.35;108993;1253;60160;-53
2023/09/23 05:32:12;;;;;;;7.60;2.00;;;;;;;17.66;100.00;100393.67;108971;1253;75841;-53
2023/09/23 05:34:39;;;;;;;5.10;2.20;;;;;;;17.73;100.00;100388.61;108934;1257;67417;-54
2023/09/23 05:37:11;;;;;;;3.70;2.10;;;;;;;17.82;100.00;100384.38;109026;1253;72725;-54
2023/09/23 05:39:44;;;;;;;3.80;1.90;;;;;;;17.92;100.00;100388.97;108937;1253;58856;-54
2023/09/23 05:42:13;;;;;;;3.40;1.60;;;;;;;18.03;100.00;100390.73;109031;1253;58904;-53
2023/09/23 05:44:42;;;;;;;3.50;1.80;;;;;;;18.13;100.00;100390.59;109011;1253;72747;-54
2023/09/23 05:47:10;;;;;;;5.60;1.90;;;;;;;18.22;100.00;100392.73;109029;1253;65701;-54
2023/09/23 05:49:38;;;;;;;7.40;2.40;;;;;;;18.30;100.00;100394.35;109016;1253;72687;-55
2023/09/23 05:52:06;;;;;;;9.30;2.10;;;;;;;18.37;100.00;100389.63;108927;1256;60630;-54
2023/09/23 05:54:34;;;;;;;3.50;1.90;;;;;;;18.45;100.00;100393.42;108798;1253;63021;-53
2023/09/23 05:57:01;;;;;;;6.60;2.00;;;;;;;18.52;100.00;100389.67;107970;1256;74782;-52
2023/09/23 05:59:30;;;;;;;4.70;1.70;;;;;;;18.59;100.00;100389.41;104806;1253;66743;-54
2023/09/23 06:01:58;;;;;;;14.20;2.00;;;;;;;18.65;100.00;100388.00;106424;1253;71448;-53
2023/09/23 06:04:25;;;;;;;6.80;1.70;;;;;;;18.73;100.00;100391.10;104617;1258;62291;-53
2023/09/23 06:06:54;;;;;;;4.20;1.40;;;;;;;18.80;100.00;100394.04;104855;1258;60517;-52
2023/09/23 06:09:22;;;;;;;3.40;1.60;;;;;;;18.88;100.00;100394.19;105064;1253;73890;-53
2023/09/23 06:11:50;;;;;;;10.20;1.80;;;;;;;18.96;100.00;100397.95;104844;1259;67611;-53
2023/09/23 06:14:17;;;;;;;1.40;1.00;;;;;;;19.04;100.00;100401.95;108034;1258;74314;-51
2023/09/23 06:16:45;;;;;;;2.60;1.10;;;;;;;19.10;100.00;100402.20;104867;1256;60445;-52
2023/09/23 06:19:12;;;;;;;6.20;1.20;;;;;;;19.16;100.00;100404.45;106788;1253;61007;-52
2023/09/23 06:21:39;;;;;;;5.30;1.50;;;;;;;19.23;100.00;100409.08;104938;1253;74331;-52
2023/09/23 06:24:10;;;;;;;3.70;2.10;;;;;;;19.30;100.00;100409.33;104816;1260;66118;-53
2023/09/23 06:26:38;;;;;;;2.20;1.40;;;;;;;19.36;100.00;100410.84;104923;1259;71474;-54
2023/09/23 06:29:05;;;;;;;6.60;1.20;;;;;;;19.43;100.00;100409.76;107119;1254;60658;-53
2023/09/23 06:31:33;;;;;;;4.20;1.30;;;;;;;19.51;100.00;100408.47;104902;1259;60483;-53
2023/09/23 06:34:00;;;;;;;3.70;1.50;;;;;;;19.58;100.00;100407.88;105125;1253;72664;-53
2023/09/23 06:36:27;;;;;;;6.10;1.90;;;;;;;19.67;100.00;100412.70;105208;1256;67143;-54
2023/09/23 06:38:55;;;;;;;2.40;1.30;;;;;;;19.76;100.00;100417.86;105025;1257;72674;-53
2023/09/23 06:41:22;;;;;;;2.20;1.20;;;;;;;19.85;100.00;100421.38;105067;1252;61147;-53
2023/09/23 06:43:52;;;;;;;3.10;1.00;;;;;;;19.94;100.00;100424.63;105051;1260;60458;-50
2023/09/23 06:46:19;;;;;;;1.60;0.80;;;;;;;20.06;100.00;100425.98;105166;1253;73821;-54
2023/09/23 06:48:46;;;;;;;1.70;1.10;;;;;;;20.16;100.00;100426.84;104952;1254;67586;-53
2023/09/23 06:51:14;;;;;;;1.50;0.80;;;;;;;20.26;100.00;100426.00;104909;1253;71583;-54
2023/09/23 06:53:42;;;;;;;4.20;1.00;;;;;;;20.36;100.00;100425.05;105015;1255;60560;-54
2023/09/23 06:56:11;;;;;;;4.30;0.90;;;;;;;20.47;100.00;100425.30;105106;1259;60512;-54
2023/09/23 06:58:39;;;;;;;3.00;1.00;;;;;;;20.58;100.00;100427.54;105082;1252;74905;-52
2023/09/23 07:01:07;;;;;;;3.10;1.30;;;;;;;20.69;100.00;100426.27;107725;1253;66574;-54
2023/09/23 07:03:34;;;;;;;2.90;1.10;;;;;;;20.81;100.00;100430.23;104917;1259;72749;-52
2023/09/23 07:06:02;;;;;;;1.20;0.80;;;;;;;20.94;100.00;100433.21;104956;1253;60543;-55
2023/09/23 07:08:30;;;;;;;1.70;0.90;;;;;;;21.06;100.00;100432.80;105131;1253;60365;-55
2023/09/23 07:10:57;;;;;;;7.00;0.80;;;;;;;21.17;100.00;100437.52;104889;1252;73855;-51
2023/09/23 07:13:25;;;;;;;1.80;0.80;;;;;;;21.30;100.00;100443.10;105091;1254;67156;-54
2023/09/23 07:15:52;;;;;;;4.20;1.00;;;;;;;21.41;100.00;100445.83;105167;1259;70483;-54
2023/09/23 07:18:20;;;;;;;1.10;0.80;;;;;;;21.52;100.00;100448.56;105055;1259;60504;-53
2023/09/23 07:20:47;;;;;;;2.30;0.90;;;;;;;21.62;100.00;100444.61;104946;1253;60843;-54
2023/09/23 07:23:15;;;;;;;1.90;0.90;;;;;;;21.72;100.00;100445.77;105004;1253;73842;-54
2023/09/23 07:25:43;;;;;;;5.90;0.90;;;;;;;21.81;100.00;100446.97;104915;1253;67227;-54
2023/09/23 07:28:10;;;;;;;2.00;0.90;;;;;;;21.91;100.00;100440.31;105059;1257;73724;-53
2023/09/23 07:30:38;;;;;;;1.40;0.90;;;;;;;22.02;100.00;100437.25;104809;1256;60665;-54
2023/09/23 07:33:05;;;;;;;3.30;0.80;;;;;;;22.12;100.00;100434.02;104774;1259;60358;-55
2023/09/23 07:35:33;;;;;;;4.50;1.20;;;;;;;22.22;100.00;100436.99;104668;1256;72796;-55
2023/09/23 07:38:01;;;;;;;4.90;1.00;;;;;;;22.32;100.00;100430.66;105093;1256;66303;-54
2023/09/23 07:40:30;;;;;;;2.60;1.20;;;;;;;22.41;100.00;100431.52;104754;1256;72949;-55
2023/09/23 07:42:57;;;;;;;4.70;1.00;;;;;;;22.49;100.00;100433.89;105333;1261;60834;-55
2023/09/23 07:45:25;;;;;;;5.50;1.30;;;;;;;22.58;100.00;100431.78;104996;1259;60428;-54
2023/09/23 07:47:53;;;;;;;3.90;1.30;;;;;;;22.67;100.00;100429.39;105039;1258;74160;-54
2023/09/23 07:50:21;;;;;;;2.30;1.10;;;;;;;22.75;100.00;100430.02;104604;1256;67237;-55
2023/09/23 07:52:49;;;;;;;4.60;1.30;;;;;;;22.83;100.00;100436.95;108670;1259;71490;-54
2023/09/23 07:55:17;;;;;;;1.70;1.00;;;;;;;22.91;100.00;100435.70;106913;1256;60480;-54
2023/09/23 07:57:44;;;;;;;4.20;1.10;;;;;;;22.98;100.00;100439.27;104771;1258;61982;-54
2023/09/23 08:00:12;;;;;;;5.20;1.30;;;;;;;23.03;100.00;100433.30;104782;1256;73983;-53
2023/09/23 08:02:39;;;;;;;4.30;1.30;;;;;;;23.09;100.00;100431.86;104887;1259;66039;-54
2023/09/23 08:05:08;;;;;;;9.30;2.80;;;;;;;23.15;100.00;100427.14;104839;1258;73245;-53
2023/09/23 08:07:36;;;;;;;3.90;1.40;;;;;;;23.21;100.00;100428.90;106448;1256;60582;-52
2023/09/23 08:10:05;;;;;;;5.50;1.20;;;;;;;23.29;100.00;100427.17;104878;1259;60470;-54
2023/09/23 08:12:35;;;;;;;5.40;1.30;;;;;;;23.34;100.00;100427.73;104875;1257;72613;-54
2023/09/23 08:15:05;;;;;;;2.30;1.10;;;;;;;23.41;100.00;100432.65;105530;1259;67401;-54
2023/09/23 08:17:32;;;;;;;6.30;1.20;;;;;;;23.46;100.00;100435.63;109006;1255;71926;-54
2023/09/23 08:20:12;;;;;;;2.90;1.40;;;;;;;23.52;100.00;100436.45;108207;1255;60559;-53
2023/09/23 08:22:41;;;;;;;7.20;1.40;;;;;;;23.56;100.00;100435.88;108938;1254;58808;-54
2023/09/23 08:25:08;;;;;;;4.70;1.30;;;;;;;23.59;100.00;100438.66;108820;1256;73866;-54
2023/09/23 08:27:36;;;;;;;4.60;1.20;;;;;;;23.61;100.00;100443.04;106267;1256;66600;-53
2023/09/23 08:30:05;;;;;;;5.90;1.40;;;;;;;23.63;100.00;100442.93;104801;1256;73233;-53
2023/09/23 08:32:32;;;;;;;7.10;1.70;;;;;;;23.65;100.00;100436.67;104762;1258;60410;-54
2023/09/23 08:35:00;;;;;;;3.40;1.40;;;;;;;23.68;100.00;100433.08;104858;1254;60882;-52
2023/09/23 08:37:27;;;;;;;2.10;1.20;;;;;;;23.73;100.00;100434.45;104995;1259;73901;-53
2023/09/23 08:39:55;;;;;;;7.80;1.20;;;;;;;23.78;100.00;100435.48;104964;1257;67520;-58
2023/09/23 08:42:24;;;;;;;7.50;1.60;;;;;;;23.84;100.00;100442.04;104756;1257;71431;-56
2023/09/23 08:44:51;;;;;;;5.80;1.30;;;;;;;23.87;100.00;100440.30;109084;1258;60109;-56
2023/09/23 08:47:19;;;;;;;10.10;1.30;;;;;;;23.90;100.00;100436.23;109062;1252;58796;-55
2023/09/23 08:49:49;;;;;;;3.10;1.80;;;;;;;23.90;100.00;100428.99;109247;1254;73194;-54
2023/09/23 08:52:17;;;;;;;4.40;2.40;;;;;;;23.92;100.00;100429.52;109012;1259;70369;-55
2023/09/23 08:54:49;;;;;;;8.90;1.50;;;;;;;23.96;100.00;100425.58;108993;1253;72413;-55
2023/09/23 08:57:16;;;;;;;7.00;1.80;;;;;;;23.98;100.00;100421.29;109071;1253;58872;-53
2023/09/23 08:59:44;;;;;;;7.60;1.40;;;;;;;24.04;100.00;100423.90;109094;1254;58847;-54
2023/09/23 09:02:22;;;;;;;5.60;1.50;;;;;;;24.11;100.00;100423.96;107539;1253;74000;-55
2023/09/23 09:04:55;;;;;;;3.60;1.70;;;;;;;24.18;100.00;100428.02;108920;1253;65655;-54
2023/09/23 09:07:24;;;;;;;8.60;2.20;;;;;;;24.24;100.00;100420.14;106372;1256;73337;-56
2023/09/23 09:09:52;;;;;;;7.40;1.90;;;;;;;24.29;100.00;100413.80;106648;1259;60486;-56
2023/09/23 09:12:20;;;;;;;5.70;1.80;;;;;;;24.34;100.00;100412.41;104948;1254;60424;-57
2023/09/23 09:14:50;;;;;;;3.30;1.40;;;;;;;24.40;100.00;100416.44;105014;1259;74417;-53
2023/09/23 09:17:19;;;;;;;8.70;1.70;;;;;;;24.45;100.00;100415.52;106868;1256;66951;-54
2023/09/23 09:19:47;;;;;;;2.60;1.30;;;;;;;24.50;100.00;100415.25;106164;1254;71431;-52
2023/09/23 09:22:17;;;;;;;4.40;1.10;;;;;;;24.55;100.00;100416.47;104822;1258;61238;-53
2023/09/23 09:24:46;;;;;;;5.30;1.20;;;;;;;24.60;100.00;100421.09;104871;1259;60510;-55
2023/09/23 09:27:14;;;;;;;4.60;1.70;;;;;;;24.65;100.00;100420.66;105158;1254;72644;-54
2023/09/23 09:29:42;;;;;;;3.00;1.50;;;;;;;24.68;100.00;100420.48;109035;1256;65630;-54
2023/09/23 09:32:10;;;;;;;4.30;1.40;;;;;;;24.72;100.00;100419.19;107832;1259;71470;-53
2023/09/23 09:34:46;;;;;;;8.10;1.40;;;;;;;24.76;100.00;100430.56;105398;1259;60451;-52
2023/09/23 09:37:14;;;;;;;3.70;1.50;;;;;;;24.81;100.00;100432.10;104853;1255;60676;-54
2023/09/23 09:39:51;;;;;;;3.60;1.80;;;;;;;24.85;100.00;100430.16;104892;1259;72975;-54
2023/09/23 09:42:39;;;;;;;6.10;1.10;;;;;;;24.91;100.00;100430.05;107341;1257;65630;-53
2023/09/23 09:45:08;;;;;;;2.20;1.20;;;;;;;24.95;100.00;100431.85;105151;1254;72696;-54
2023/09/23 09:47:38;;;;;;;2.50;1.30;;;;;;;24.99;100.00;100435.85;105610;1254;60447;-54
2023/09/23 09:50:06;;;;;;;8.40;1.20;;;;;;;25.02;100.00;100435.88;105203;1255;60539;-54
2023/09/23 09:52:34;;;;;;;1.70;1.00;;;;;;;25.05;100.00;100435.63;105227;1259;74178;-54
2023/09/23 09:55:01;;;;;;;3.70;1.20;;;;;;;25.09;100.00;100433.00;104730;1257;66739;-52
2023/09/23 09:57:29;;;;;;;3.00;1.40;;;;;;;25.14;100.00;100433.25;104971;1259;71436;-54
2023/09/23 10:00:00;;;;;;;5.70;1.20;;;;;;;25.18;100.00;100431.91;104992;1260;60465;-53
2023/09/23 10:02:28;;;;;;;2.20;1.20;;;;;;;25.22;100.00;100435.59;104911;1255;61069;-52
2023/09/23 10:05:01;;;;;;;2.40;1.10;;;;;;;25.25;100.00;100440.63;109111;1255;73141;-55
2023/09/23 10:07:56;;;;;;;4.10;1.30;;;;;;;25.28;100.00;100443.04;105508;1254;68165;-54
2023/09/23 10:10:31;;;;;;;4.30;1.20;;;;;;;25.30;100.00;100440.14;104982;1253;72704;-55
2023/09/23 10:13:11;;;;;;;5.20;1.40;;;;;;;25.31;100.00;100437.07;105769;1255;60530;-54
2023/09/23 10:15:40;;;;;;;4.30;1.20;;;;;;;25.32;100.00;100435.15;105003;1254;60353;-56
2023/09/23 10:18:10;;;;;;;5.90;1.10;;;;;;;25.34;100.00;100438.98;107510;1257;74349;-56
2023/09/23 10:20:42;;;;;;;2.10;1.00;;;;;;;25.36;100.00;100441.52;109090;1257;67172;-56
2023/09/23 10:23:10;;;;;;;6.70;1.10;;;;;;;25.39;100.00;100443.09;107366;1255;71445;-56
2023/09/23 10:25:39;;;;;;;14.30;2.00;;;;;;;25.42;100.00;100445.38;105829;1254;60566;-52
2023/09/23 10:28:07;;;;;;;5.00;1.10;;;;;;;25.44;100.00;100442.90;105206;1259;60472;-55
2023/09/23 10:30:35;;;;;;;3.60;1.10;;;;;;;25.47;100.00;100439.02;104889;1260;73947;-54
2023/09/23 10:33:03;;;;;;;1.70;1.00;;;;;;;25.47;100.00;100438.58;104564;1260;67803;-55
2023/09/23 10:35:30;;;;;;;5.70;1.20;;;;;;;25.49;100.00;100433.30;107816;1259;73288;-53
2023/09/23 10:37:58;;;;;;;3.00;1.20;;;;;;;25.50;100.00;100423.61;104882;1260;61112;-55
2023/09/23 10:40:25;;;;;;;9.40;1.20;;;;;;;25.52;100.00;100421.79;104959;1254;60534;-54
2023/09/23 10:42:52;;;;;;;6.60;1.00;;;;;;;25.53;100.00;100423.42;104727;1259;72826;-55
2023/09/23 10:45:20;;;;;;;4.80;1.00;;;;;;;25.57;100.00;100427.13;104893;1260;67064;-54
2023/09/23 10:47:48;;;;;;;6.00;1.00;;;;;;;25.59;100.00;100426.21;104821;1258;71454;-54
2023/09/23 10:50:15;;;;;;;5.20;0.90;;;;;;;25.60;100.00;100419.86;108965;1254;58879;-55
2023/09/23 10:52:43;;;;;;;3.70;1.10;;;;;;;25.61;100.00;100423.98;107807;1259;60474;-54
2023/09/23 10:55:10;;;;;;;4.60;0.90;;;;;;;25.63;100.00;100418.13;104985;1257;72608;-54
2023/09/23 10:57:38;;;;;;;6.30;1.70;;;;;;;25.65;100.00;100416.63;105159;1261;65976;-55
2023/09/23 11:00:33;;;;;;;3.60;1.50;;;;;;;25.68;100.00;100417.13;105508;1260;72731;-54
2023/09/23 11:02:54;;;;;;;5.20;2.30;;;;;;;25.69;100.00;100409.75;105045;1259;60790;-54
2023/09/23 11:05:22;;;;;;;4.30;1.50;;;;;;;25.72;100.00;100409.86;105174;1260;60451;-53
2023/09/23 11:07:54;;;;;;;2.90;1.00;;;;;;;25.76;100.00;100412.63;104801;1259;74480;-54
2023/09/23 11:10:23;;;;;;;1.90;1.00;;;;;;;25.78;100.00;100411.84;104854;1260;66331;-54
2023/09/23 11:12:54;;;;;;;2.90;1.10;;;;;;;25.78;100.00;100409.95;108936;1254;71448;-54
2023/09/23 11:15:21;;;;;;;5.40;1.60;;;;;;;25.79;100.00;100404.55;108988;1259;58867;-55
2023/09/23 11:17:48;;;;;;;1.40;0.90;;;;;;;25.80;100.00;100397.64;108930;1254;60127;-56